Time;durP1;ratioP1;P1;durP2;ratioP2;P2;SDS_P1;SDS_P2;PMS_P1;PMS_P2;Temp;Humidity;BMP_temperature;BMP_pressure;BME280_temperature;BME280_humidity;BME280_pressure;Samples;Min_cycle;Max_cycle;Signal;HPM_P1;HPM_P2
2021/06/29 00:00:26;;;;;;;0.00;0.00;;;15.70;99.90;;;;;;5057131;28;20025;-81
2021/06/29 00:02:59;;;;;;;0.10;0.10;;;15.70;99.90;;;;;;5048587;28;20025;-81
2021/06/29 00:05:25;;;;;;;0.20;0.20;;;15.70;99.90;;;;;;5049342;28;20527;-81
2021/06/29 00:07:51;;;;;;;0.03;0.03;;;15.60;99.90;;;;;;5060693;28;20029;-81
2021/06/29 00:10:16;;;;;;;0.20;0.20;;;15.60;99.90;;;;;;5055441;28;20082;-81
2021/06/29 00:12:42;;;;;;;0.00;0.00;;;15.50;99.90;;;;;;5049898;28;20087;-81
2021/06/29 00:15:08;;;;;;;0.00;0.00;;;15.50;99.90;;;;;;5049932;28;20029;-81
2021/06/29 00:17:34;;;;;;;0.30;0.30;;;15.50;99.90;;;;;;5067887;28;20032;-81
2021/06/29 00:20:01;;;;;;;0.07;0.07;;;15.50;99.90;;;;;;5061632;28;20037;-82
2021/06/29 00:22:27;;;;;;;0.35;0.35;;;15.50;99.90;;;;;;5056314;28;20112;-82
2021/06/29 00:24:52;;;;;;;0.27;0.27;;;15.40;99.90;;;;;;5055545;28;20124;-82
2021/06/29 00:27:18;;;;;;;0.10;0.10;;;15.40;99.90;;;;;;5047338;28;20090;-82
2021/06/29 00:29:44;;;;;;;0.07;0.07;;;15.50;99.90;;;;;;5054448;28;20033;-82
2021/06/29 00:32:10;;;;;;;0.10;0.10;;;15.50;99.90;;;;;;5055412;28;20028;-82
2021/06/29 00:34:36;;;;;;;2.73;1.13;;;15.50;99.90;;;;;;5056126;28;20448;-81
2021/06/29 00:37:02;;;;;;;0.20;0.20;;;15.50;99.90;;;;;;5066762;28;20107;-81
2021/06/29 00:39:27;;;;;;;0.10;0.10;;;15.50;99.90;;;;;;5053886;28;20546;-81
2021/06/29 00:41:53;;;;;;;0.20;0.10;;;15.50;99.90;;;;;;5063084;28;20055;-81
2021/06/29 00:44:21;;;;;;;0.10;0.10;;;15.50;99.90;;;;;;5055612;28;20443;-81
2021/06/29 00:46:47;;;;;;;0.10;0.10;;;15.40;99.90;;;;;;5054374;28;20047;-81
2021/06/29 00:49:13;;;;;;;0.20;0.20;;;15.50;99.90;;;;;;5059528;28;20040;-81
2021/06/29 00:51:39;;;;;;;0.10;0.10;;;15.40;99.90;;;;;;5052647;28;20047;-82
2021/06/29 00:54:05;;;;;;;0.10;0.10;;;15.40;99.90;;;;;;5048400;28;20029;-81
2021/06/29 00:56:32;;;;;;;0.20;0.20;;;15.30;99.90;;;;;;5054168;28;20055;-81
2021/06/29 00:58:58;;;;;;;0.00;0.00;;;15.30;99.90;;;;;;5057625;28;20025;-82
2021/06/29 01:01:23;;;;;;;0.10;0.10;;;15.20;99.90;;;;;;5056204;28;20032;-82
2021/06/29 01:03:49;;;;;;;0.00;0.00;;;15.00;99.90;;;;;;5058743;28;20029;-82
2021/06/29 01:06:15;;;;;;;0.03;0.03;;;14.90;99.90;;;;;;5058284;28;20036;-82
2021/06/29 01:08:42;;;;;;;0.00;0.00;;;14.90;99.90;;;;;;5050230;28;20402;-82
2021/06/29 01:11:12;;;;;;;0.32;0.32;;;14.90;99.90;;;;;;5058629;28;20530;-82
2021/06/29 01:13:40;;;;;;;0.10;0.10;;;14.80;99.90;;;;;;5052987;28;20809;-82
2021/06/29 01:16:07;;;;;;;0.10;0.10;;;14.70;99.90;;;;;;5055699;28;20017;-82
2021/06/29 01:18:34;;;;;;;0.20;0.20;;;14.70;99.90;;;;;;5055887;28;20049;-82
2021/06/29 01:21:00;;;;;;;0.25;0.17;;;14.70;99.90;;;;;;5046294;28;20124;-81
2021/06/29 01:23:28;;;;;;;0.10;0.10;;;14.70;99.90;;;;;;5061417;28;20017;-82
2021/06/29 01:26:13;;;;;;;0.00;0.00;;;14.60;99.90;;;;;;5056244;28;20025;-82
2021/06/29 01:31:25;;;;;;;0.10;0.10;;;14.50;99.90;;;;;;5053828;28;20124;-81
2021/06/29 01:33:52;;;;;;;0.10;0.10;;;14.60;99.90;;;;;;5049469;28;20512;-82
2021/06/29 01:36:19;;;;;;;0.22;0.22;;;14.60;99.90;;;;;;5053979;28;20033;-82
2021/06/29 01:38:47;;;;;;;8.30;2.92;;;14.60;99.90;;;;;;5063861;28;20113;-81
2021/06/29 01:41:15;;;;;;;0.10;0.10;;;14.50;99.90;;;;;;5051406;28;20040;-81
2021/06/29 01:43:50;;;;;;;0.10;0.10;;;14.50;99.90;;;;;;5065640;28;20038;-81
2021/06/29 01:46:17;;;;;;;0.17;0.17;;;14.50;99.90;;;;;;5060452;28;20035;-82
2021/06/29 01:48:48;;;;;;;0.00;0.00;;;14.50;99.90;;;;;;5056654;28;20021;-82
2021/06/29 01:51:14;;;;;;;0.15;0.15;;;14.40;99.90;;;;;;5061623;28;20180;-81
2021/06/29 01:53:41;;;;;;;0.05;0.05;;;14.40;99.90;;;;;;5066076;28;20410;-81
2021/06/29 01:56:14;;;;;;;0.00;0.00;;;14.50;99.90;;;;;;5060446;28;20511;-81
2021/06/29 01:58:42;;;;;;;0.15;0.15;;;14.50;99.90;;;;;;5057702;28;20094;-81
2021/06/29 02:01:08;;;;;;;0.52;0.30;;;14.50;99.90;;;;;;5056667;28;20040;-81
2021/06/29 02:03:34;;;;;;;0.27;0.27;;;14.50;99.90;;;;;;5058944;28;20497;-82
2021/06/29 02:06:00;;;;;;;0.10;0.10;;;14.50;99.90;;;;;;5049789;28;20401;-82
2021/06/29 02:08:26;;;;;;;0.10;0.10;;;14.50;99.90;;;;;;5058843;28;20021;-82
2021/06/29 02:10:52;;;;;;;0.10;0.10;;;14.60;99.90;;;;;;5057265;28;20036;-82
2021/06/29 02:13:17;;;;;;;0.10;0.10;;;14.60;99.90;;;;;;5057857;28;20107;-83
2021/06/29 02:15:43;;;;;;;0.00;0.00;;;14.60;99.90;;;;;;5061870;28;20035;-83
2021/06/29 02:18:09;;;;;;;0.10;0.10;;;14.50;99.90;;;;;;5065148;28;20029;-82
2021/06/29 02:20:35;;;;;;;0.10;0.10;;;14.50;99.90;;;;;;5062220;28;20028;-82
2021/06/29 02:23:01;;;;;;;0.00;0.00;;;14.50;99.90;;;;;;5062228;28;20452;-82
2021/06/29 02:25:27;;;;;;;0.30;0.30;;;14.50;99.90;;;;;;5052267;28;20028;-82
2021/06/29 02:27:53;;;;;;;0.10;0.10;;;14.50;99.90;;;;;;5060342;28;20016;-82
2021/06/29 02:30:19;;;;;;;0.03;0.03;;;14.40;99.90;;;;;;5055490;28;20104;-82
2021/06/29 02:32:45;;;;;;;0.00;0.00;;;14.30;99.90;;;;;;5059943;28;20123;-83
2021/06/29 02:35:11;;;;;;;0.00;0.00;;;14.40;99.90;;;;;;5054623;28;20033;-83
2021/06/29 02:37:37;;;;;;;0.00;0.00;;;14.40;99.90;;;;;;5057174;28;20029;-83
2021/06/29 02:40:05;;;;;;;0.10;0.10;;;14.30;99.90;;;;;;5051713;28;20089;-83
2021/06/29 02:42:31;;;;;;;0.10;0.10;;;14.30;99.90;;;;;;5054332;28;20090;-83
2021/06/29 02:45:04;;;;;;;0.10;0.10;;;14.20;99.90;;;;;;5050143;28;20477;-83
2021/06/29 02:47:29;;;;;;;0.30;0.30;;;14.20;99.90;;;;;;5057484;28;20020;-83
2021/06/29 02:49:55;;;;;;;0.60;0.60;;;14.20;99.90;;;;;;5054369;28;20024;-83
2021/06/29 02:52:21;;;;;;;0.20;0.20;;;14.20;99.90;;;;;;5053959;28;20375;-83
2021/06/29 02:54:47;;;;;;;0.00;0.00;;;14.10;99.90;;;;;;5049512;28;20028;-83
2021/06/29 02:57:12;;;;;;;0.57;0.47;;;14.10;99.90;;;;;;5060175;28;20032;-83
2021/06/29 02:59:38;;;;;;;0.40;0.40;;;14.10;99.90;;;;;;5047490;28;20041;-82
2021/06/29 03:02:04;;;;;;;0.20;0.20;;;14.10;99.90;;;;;;5050720;28;20039;-83
2021/06/29 03:04:30;;;;;;;0.10;0.10;;;14.20;99.90;;;;;;5063947;28;20020;-82
2021/06/29 03:06:56;;;;;;;0.13;0.13;;;14.10;99.90;;;;;;5052839;28;20021;-82
2021/06/29 03:09:21;;;;;;;0.13;0.13;;;14.20;99.90;;;;;;5055264;28;20021;-83
2021/06/29 03:11:47;;;;;;;0.40;0.30;;;14.20;99.90;;;;;;5048670;28;20028;-83
2021/06/29 03:14:13;;;;;;;0.40;0.40;;;14.10;99.90;;;;;;5057333;28;20032;-82
2021/06/29 03:16:39;;;;;;;0.20;0.20;;;14.10;99.90;;;;;;5063968;28;20144;-83
2021/06/29 03:19:05;;;;;;;0.00;0.00;;;14.10;99.90;;;;;;5056693;28;20064;-82
2021/06/29 03:21:31;;;;;;;0.00;0.00;;;14.10;99.90;;;;;;5061815;28;20120;-83
2021/06/29 03:23:56;;;;;;;0.00;0.00;;;14.00;99.90;;;;;;5057875;28;20364;-83
2021/06/29 03:26:23;;;;;;;0.10;0.10;;;14.10;99.90;;;;;;5058957;28;20027;-82
2021/06/29 03:28:49;;;;;;;0.10;0.10;;;14.10;99.90;;;;;;5050268;28;20028;-82
2021/06/29 03:31:14;;;;;;;0.20;0.20;;;14.10;99.90;;;;;;5053719;28;20037;-82
2021/06/29 03:33:40;;;;;;;0.00;0.00;;;14.10;99.90;;;;;;5052799;28;20295;-82
2021/06/29 03:36:06;;;;;;;0.00;0.00;;;14.10;99.90;;;;;;5060404;28;20028;-82
2021/06/29 03:38:32;;;;;;;0.10;0.10;;;14.10;99.90;;;;;;5056742;28;20137;-82
2021/06/29 03:40:58;;;;;;;3.30;1.63;;;14.20;99.90;;;;;;5056656;28;20033;-82
2021/06/29 03:43:24;;;;;;;0.10;0.10;;;14.00;99.90;;;;;;5053728;28;20059;-82
2021/06/29 03:45:50;;;;;;;0.00;0.00;;;14.10;99.90;;;;;;5054470;28;20493;-82
2021/06/29 03:48:16;;;;;;;0.10;0.10;;;14.10;99.90;;;;;;5062451;28;20029;-82
2021/06/29 03:50:42;;;;;;;0.00;0.00;;;14.10;99.90;;;;;;5048869;28;20016;-83
2021/06/29 03:53:07;;;;;;;0.10;0.10;;;14.00;99.90;;;;;;5053117;28;20762;-83
2021/06/29 03:55:34;;;;;;;0.10;0.10;;;14.00;99.90;;;;;;5059209;28;20040;-82
2021/06/29 03:58:01;;;;;;;0.00;0.00;;;14.10;99.90;;;;;;5057507;28;20028;-82
2021/06/29 04:00:26;;;;;;;0.10;0.10;;;14.10;99.90;;;;;;5066288;28;20097;-82
2021/06/29 04:02:52;;;;;;;0.13;0.13;;;14.20;99.90;;;;;;5055155;28;20500;-82
2021/06/29 04:05:18;;;;;;;0.47;0.43;;;14.10;99.90;;;;;;5055045;28;20017;-82
2021/06/29 04:07:45;;;;;;;0.20;0.20;;;14.10;99.90;;;;;;5051613;28;20029;-82
2021/06/29 04:10:11;;;;;;;0.05;0.05;;;14.10;99.90;;;;;;5056822;28;20028;-82
2021/06/29 04:12:37;;;;;;;0.10;0.10;;;14.10;99.90;;;;;;5058631;28;20042;-81
2021/06/29 04:15:05;;;;;;;0.00;0.00;;;14.10;99.90;;;;;;5053631;28;20089;-82
2021/06/29 04:17:31;;;;;;;0.10;0.10;;;14.00;99.90;;;;;;5047974;28;20033;-83
2021/06/29 04:19:57;;;;;;;0.10;0.10;;;13.90;99.90;;;;;;5052945;28;20083;-82
2021/06/29 04:22:23;;;;;;;0.33;0.33;;;14.00;99.90;;;;;;5064750;28;20036;-82
2021/06/29 04:24:49;;;;;;;0.77;0.60;;;14.10;99.90;;;;;;5054342;28;20029;-82
2021/06/29 04:27:15;;;;;;;0.10;0.10;;;14.10;99.90;;;;;;5051460;28;20079;-82
2021/06/29 04:29:42;;;;;;;0.10;0.10;;;14.10;99.90;;;;;;5053457;28;20025;-82
2021/06/29 04:32:08;;;;;;;0.10;0.10;;;14.20;99.90;;;;;;5058405;28;20032;-83
2021/06/29 04:34:33;;;;;;;0.27;0.27;;;14.20;99.90;;;;;;5051403;28;20040;-83
2021/06/29 04:37:01;;;;;;;0.10;0.10;;;14.10;99.90;;;;;;5064184;28;20631;-83
2021/06/29 04:39:27;;;;;;;0.10;0.10;;;14.20;99.90;;;;;;5056501;28;20069;-83
2021/06/29 04:41:53;;;;;;;0.30;0.30;;;14.20;99.90;;;;;;5057421;28;20654;-82
2021/06/29 04:44:19;;;;;;;0.20;0.20;;;14.10;99.90;;;;;;5052045;28;20028;-83
2021/06/29 04:46:49;;;;;;;0.00;0.00;;;14.20;99.90;;;;;;5050652;28;20059;-83
2021/06/29 04:49:15;;;;;;;0.32;0.32;;;14.30;99.90;;;;;;5049769;28;20024;-83
2021/06/29 04:51:41;;;;;;;0.10;0.10;;;14.30;99.90;;;;;;5055507;28;20113;-83
2021/06/29 04:54:07;;;;;;;0.80;0.27;;;14.30;99.90;;;;;;5056384;28;20089;-82
2021/06/29 04:56:32;;;;;;;0.00;0.00;;;14.30;99.90;;;;;;5062289;28;20044;-83
2021/06/29 04:58:58;;;;;;;0.10;0.10;;;14.30;99.90;;;;;;5052199;28;20505;-83
2021/06/29 05:01:24;;;;;;;0.00;0.00;;;14.40;99.90;;;;;;5053065;28;20029;-84
2021/06/29 05:03:50;;;;;;;0.10;0.10;;;14.30;99.90;;;;;;5056675;28;20062;-83
2021/06/29 05:06:18;;;;;;;0.10;0.10;;;14.10;99.90;;;;;;5058950;28;20553;-82
2021/06/29 05:08:44;;;;;;;1.13;0.75;;;13.90;99.90;;;;;;5055210;28;20025;-83
2021/06/29 05:11:10;;;;;;;0.10;0.10;;;14.70;99.90;;;;;;5052590;28;20494;-82
2021/06/29 05:13:36;;;;;;;0.00;0.00;;;14.60;99.90;;;;;;5055511;28;20033;-82
2021/06/29 05:16:02;;;;;;;3.60;1.00;;;14.30;99.90;;;;;;5064296;28;20440;-83
2021/06/29 05:18:28;;;;;;;1.75;0.98;;;14.20;99.90;;;;;;5067635;28;20025;-83
2021/06/29 05:20:56;;;;;;;0.00;0.00;;;14.10;99.90;;;;;;5059995;28;20519;-82
2021/06/29 05:23:22;;;;;;;0.15;0.15;;;14.00;99.90;;;;;;5068199;28;20028;-83
2021/06/29 05:25:48;;;;;;;0.10;0.10;;;14.10;99.90;;;;;;5067437;28;20079;-83
2021/06/29 05:28:18;;;;;;;0.08;0.08;;;14.30;99.90;;;;;;5056389;28;20110;-83
2021/06/29 05:30:45;;;;;;;0.05;0.05;;;14.40;99.90;;;;;;5059719;28;20020;-82
2021/06/29 05:33:11;;;;;;;0.10;0.10;;;14.40;99.90;;;;;;5067598;28;20024;-83
2021/06/29 05:35:37;;;;;;;2.80;0.83;;;14.40;99.90;;;;;;5056872;28;20025;-83
2021/06/29 05:38:03;;;;;;;0.10;0.10;;;15.20;99.90;;;;;;5065930;28;20032;-84
2021/06/29 05:40:29;;;;;;;0.27;0.27;;;15.90;99.90;;;;;;5061645;28;20028;-85
2021/06/29 05:42:55;;;;;;;0.00;0.00;;;16.30;99.90;;;;;;5058068;28;20041;-84
2021/06/29 05:45:20;;;;;;;0.00;0.00;;;19.10;99.90;;;;;;5069199;28;20126;-83
2021/06/29 05:47:47;;;;;;;0.10;0.10;;;18.50;99.90;;;;;;5070269;28;20023;-83
2021/06/29 05:50:13;;;;;;;0.00;0.00;;;17.80;99.90;;;;;;5053960;28;20161;-83
2021/06/29 05:52:40;;;;;;;0.00;0.00;;;16.60;99.90;;;;;;5051360;28;20028;-83
2021/06/29 05:55:08;;;;;;;0.00;0.00;;;15.90;99.90;;;;;;5051438;28;20264;-83
2021/06/29 05:57:36;;;;;;;0.00;0.00;;;15.40;99.90;;;;;;5050511;28;20065;-83
2021/06/29 06:00:07;;;;;;;0.00;0.00;;;15.30;99.90;;;;;;5058552;28;20024;-82
2021/06/29 06:02:32;;;;;;;0.10;0.10;;;15.40;99.90;;;;;;5063659;28;20057;-83
2021/06/29 06:04:58;;;;;;;0.30;0.30;;;15.70;99.90;;;;;;5071592;28;20029;-83
2021/06/29 06:07:24;;;;;;;0.00;0.00;;;15.70;99.90;;;;;;5053621;28;20037;-83
2021/06/29 06:09:49;;;;;;;0.10;0.10;;;15.90;99.90;;;;;;5051554;28;20061;-83
2021/06/29 06:12:15;;;;;;;0.17;0.17;;;16.10;99.90;;;;;;5051613;28;20029;-83
2021/06/29 06:14:41;;;;;;;0.07;0.07;;;15.70;99.90;;;;;;5050591;28;20112;-83
2021/06/29 06:17:07;;;;;;;0.00;0.00;;;15.70;99.90;;;;;;5051557;28;20036;-83
2021/06/29 06:19:32;;;;;;;0.17;0.17;;;15.50;99.90;;;;;;5051115;28;20869;-83
2021/06/29 06:21:58;;;;;;;0.00;0.00;;;15.60;99.90;;;;;;5050783;28;20033;-83
2021/06/29 06:24:24;;;;;;;0.00;0.00;;;15.50;99.90;;;;;;5051057;28;20037;-83
2021/06/29 06:26:50;;;;;;;0.20;0.20;;;15.40;99.90;;;;;;5059544;28;20028;-83
2021/06/29 06:29:16;;;;;;;0.10;0.10;;;15.30;99.90;;;;;;5062622;28;20017;-83
2021/06/29 06:31:42;;;;;;;0.17;0.17;;;15.20;99.90;;;;;;5051794;28;20035;-83
2021/06/29 06:34:08;;;;;;;0.10;0.10;;;15.40;99.90;;;;;;5069410;28;20027;-83
2021/06/29 06:36:34;;;;;;;0.10;0.10;;;15.50;99.90;;;;;;5071075;28;20139;-83
2021/06/29 06:38:59;;;;;;;0.10;0.10;;;15.70;99.90;;;;;;5071072;28;20082;-83
2021/06/29 06:41:25;;;;;;;0.00;0.00;;;15.60;99.90;;;;;;5070650;28;20045;-83
2021/06/29 06:43:51;;;;;;;0.07;0.07;;;15.50;99.90;;;;;;5068437;28;20097;-83
2021/06/29 06:46:17;;;;;;;0.10;0.10;;;15.50;99.90;;;;;;5070862;28;20017;-83
2021/06/29 06:48:43;;;;;;;0.00;0.00;;;15.70;99.90;;;;;;5069944;28;20523;-83
2021/06/29 06:51:09;;;;;;;0.10;0.10;;;15.70;99.90;;;;;;5066670;28;20482;-84
2021/06/29 06:53:35;;;;;;;0.10;0.10;;;15.60;99.90;;;;;;5051894;28;20029;-83
2021/06/29 06:56:01;;;;;;;0.00;0.00;;;15.40;99.90;;;;;;5049673;28;20098;-84
2021/06/29 06:58:27;;;;;;;0.00;0.00;;;15.40;99.90;;;;;;5070091;28;20316;-82
2021/06/29 07:00:54;;;;;;;0.00;0.00;;;15.30;99.90;;;;;;5069101;28;20035;-83
2021/06/29 07:03:19;;;;;;;0.22;0.22;;;15.50;99.90;;;;;;5070271;28;20031;-83
2021/06/29 07:05:46;;;;;;;0.40;0.40;;;15.60;99.90;;;;;;5067891;28;20036;-82
2021/06/29 07:08:12;;;;;;;;;;;15.70;99.90;;;;;;5048967;28;20394;-82
2021/06/29 07:10:38;;;;;;;1.63;0.77;;;15.70;99.90;;;;;;5048377;28;19908;-83
2021/06/29 07:13:04;;;;;;;0.00;0.00;;;15.30;99.90;;;;;;5049768;28;20100;-83
2021/06/29 07:15:29;;;;;;;0.10;0.10;;;15.50;99.90;;;;;;5050039;28;20091;-83
2021/06/29 07:17:56;;;;;;;0.10;0.10;;;15.70;99.90;;;;;;5049393;28;20025;-82
2021/06/29 07:20:23;;;;;;;0.15;0.15;;;15.70;99.90;;;;;;5049679;28;20392;-83
2021/06/29 07:22:48;;;;;;;0.20;0.20;;;15.70;99.90;;;;;;5048859;28;20066;-83
2021/06/29 07:25:15;;;;;;;0.10;0.10;;;16.10;99.90;;;;;;5053792;28;20440;-83
2021/06/29 07:27:40;;;;;;;0.30;0.30;;;16.00;99.90;;;;;;5058647;28;20025;-83
2021/06/29 07:30:10;;;;;;;0.00;0.00;;;16.10;99.90;;;;;;5056933;28;20074;-83
2021/06/29 07:32:41;;;;;;;0.00;0.00;;;16.70;99.90;;;;;;5052448;28;20055;-83
2021/06/29 07:35:07;;;;;;;0.10;0.10;;;16.60;99.90;;;;;;5059529;28;20047;-83
2021/06/29 07:37:33;;;;;;;0.00;0.00;;;18.30;99.90;;;;;;5056576;28;20075;-83
2021/06/29 07:39:59;;;;;;;1.35;0.45;;;18.40;99.90;;;;;;5063339;28;20017;-83
2021/06/29 07:42:25;;;;;;;0.10;0.10;;;16.90;99.90;;;;;;5063390;28;20079;-83
2021/06/29 07:44:51;;;;;;;0.20;0.20;;;17.20;99.90;;;;;;5052837;28;20486;-83
2021/06/29 07:47:16;;;;;;;0.20;0.20;;;17.40;99.90;;;;;;5056647;28;20030;-83
2021/06/29 07:49:42;;;;;;;0.00;0.00;;;18.50;99.90;;;;;;5055722;28;20563;-83
2021/06/29 07:52:08;;;;;;;0.15;0.15;;;17.60;99.90;;;;;;5058502;28;20029;-83
2021/06/29 07:54:34;;;;;;;0.10;0.10;;;17.50;99.90;;;;;;5054636;28;20126;-83
2021/06/29 07:57:00;;;;;;;0.10;0.10;;;17.00;99.90;;;;;;5066373;28;20107;-83
2021/06/29 07:59:27;;;;;;;0.10;0.10;;;16.80;99.90;;;;;;5048515;28;20060;-83
2021/06/29 08:01:53;;;;;;;0.00;0.00;;;17.00;99.90;;;;;;5048170;28;20108;-83
2021/06/29 08:04:19;;;;;;;0.47;0.20;;;17.00;99.90;;;;;;5047829;28;20057;-82
2021/06/29 08:06:45;;;;;;;0.00;0.00;;;16.80;99.90;;;;;;5048650;28;20025;-82
2021/06/29 08:09:11;;;;;;;0.10;0.10;;;16.60;99.90;;;;;;5047405;28;20444;-83
2021/06/29 08:11:37;;;;;;;0.00;0.00;;;17.30;99.90;;;;;;5048785;28;20338;-83
2021/06/29 08:14:03;;;;;;;0.00;0.00;;;17.80;99.90;;;;;;5048910;28;20159;-83
2021/06/29 08:16:29;;;;;;;0.00;0.00;;;17.20;99.90;;;;;;5048826;28;20267;-82
2021/06/29 08:18:55;;;;;;;0.00;0.00;;;18.00;99.90;;;;;;5049160;28;20040;-83
2021/06/29 08:21:21;;;;;;;0.00;0.00;;;22.90;99.90;;;;;;5048748;28;20042;-83
2021/06/29 08:23:47;;;;;;;0.00;0.00;;;21.30;99.90;;;;;;5048721;28;20025;-83
2021/06/29 08:26:13;;;;;;;0.00;0.00;;;20.60;99.90;;;;;;5047750;28;20166;-83
2021/06/29 08:28:39;;;;;;;0.00;0.00;;;22.20;99.90;;;;;;5048515;28;20059;-83
2021/06/29 08:31:05;;;;;;;0.00;0.00;;;19.90;99.90;;;;;;5047558;28;20031;-83
2021/06/29 08:33:32;;;;;;;0.00;0.00;;;19.20;99.90;;;;;;5048659;28;20021;-83
2021/06/29 08:35:58;;;;;;;0.00;0.00;;;20.80;99.90;;;;;;5063821;28;20020;-83
2021/06/29 08:38:24;;;;;;;0.00;0.00;;;20.30;99.90;;;;;;5068525;28;20832;-83
2021/06/29 08:40:50;;;;;;;0.00;0.00;;;20.00;99.90;;;;;;5067882;28;20028;-83
2021/06/29 08:43:17;;;;;;;0.03;0.03;;;19.60;99.90;;;;;;5068899;28;20128;-84
2021/06/29 08:45:44;;;;;;;0.00;0.00;;;19.20;99.90;;;;;;5068909;28;20806;-83
2021/06/29 08:48:11;;;;;;;0.00;0.00;;;24.20;99.90;;;;;;5070706;28;20020;-83
2021/06/29 08:50:39;;;;;;;0.10;0.05;;;25.00;99.90;;;;;;5072949;28;20027;-83
2021/06/29 08:53:08;;;;;;;0.17;0.10;;;22.80;99.90;;;;;;5072930;28;20385;-84
2021/06/29 08:55:42;;;;;;;0.00;0.00;;;21.40;99.90;;;;;;5072766;28;20028;-84
2021/06/29 08:58:08;;;;;;;1.77;0.10;;;24.20;99.90;;;;;;5072581;28;20102;-84
2021/06/29 09:00:34;;;;;;;0.57;0.30;;;22.80;99.90;;;;;;5072731;28;20016;-84
2021/06/29 09:03:00;;;;;;;10.05;0.32;;;20.90;99.90;;;;;;5072993;28;20115;-84
2021/06/29 09:05:28;;;;;;;0.00;0.00;;;23.50;99.90;;;;;;5072611;28;20100;-84
2021/06/29 09:08:04;;;;;;;0.00;0.00;;;23.90;99.90;;;;;;5072645;28;20564;-84
2021/06/29 09:10:31;;;;;;;0.17;0.17;;;20.30;99.90;;;;;;5072501;28;20094;-83
2021/06/29 09:12:57;;;;;;;;;;;20.00;99.90;;;;;;5073027;28;20036;-83
2021/06/29 09:15:23;;;;;;;0.13;0.13;;;21.00;99.90;;;;;;5072484;28;19909;-83
2021/06/29 09:17:53;;;;;;;0.10;0.10;;;25.80;99.90;;;;;;5072400;28;20032;-83
2021/06/29 09:20:58;;;;;;;0.25;0.10;;;27.00;99.90;;;;;;5070958;28;20036;-84
2021/06/29 09:23:30;;;;;;;0.10;0.10;;;22.60;99.90;;;;;;5070181;28;20032;-83
2021/06/29 09:26:06;;;;;;;0.20;0.20;;;19.00;99.90;;;;;;5072334;28;20066;-82
2021/06/29 09:28:41;;;;;;;0.00;0.00;;;18.20;99.90;;;;;;5072210;28;20025;-82
2021/06/29 09:31:10;;;;;;;0.10;0.00;;;19.30;99.90;;;;;;5071048;28;20385;-83
2021/06/29 09:33:41;;;;;;;0.00;0.00;;;24.30;99.90;;;;;;5071766;28;20055;-83
2021/06/29 09:36:13;;;;;;;0.00;0.00;;;25.40;99.90;;;;;;5071877;28;20462;-83
2021/06/29 09:38:42;;;;;;;0.03;0.00;;;20.80;99.90;;;;;;5070584;28;20123;-82
2021/06/29 09:41:09;;;;;;;0.05;0.05;;;20.70;99.90;;;;;;5070537;28;20754;-83
2021/06/29 09:43:41;;;;;;;0.10;0.10;;;21.70;99.90;;;;;;5072166;28;20101;-82
2021/06/29 09:46:12;;;;;;;0.00;0.00;;;20.90;99.90;;;;;;5070273;28;20495;-83
2021/06/29 09:48:46;;;;;;;0.00;0.00;;;21.50;99.90;;;;;;5070191;28;20098;-83
2021/06/29 09:51:27;;;;;;;0.00;0.00;;;20.60;99.90;;;;;;5071980;28;20020;-83
2021/06/29 09:53:58;;;;;;;0.10;0.10;;;20.10;99.90;;;;;;5071710;28;20029;-83
2021/06/29 09:56:34;;;;;;;0.08;0.08;;;19.60;99.90;;;;;;5071937;28;20024;-83
2021/06/29 09:59:01;;;;;;;0.00;0.00;;;18.80;99.90;;;;;;5069901;28;20165;-83
2021/06/29 10:01:30;;;;;;;0.10;0.10;;;18.20;99.90;;;;;;5070100;28;20032;-83
2021/06/29 10:03:58;;;;;;;0.32;0.30;;;17.90;99.90;;;;;;5071453;28;20028;-83
2021/06/29 10:06:25;;;;;;;2.03;0.90;;;18.20;99.90;;;;;;5071838;28;20032;-83
2021/06/29 10:09:02;;;;;;;0.20;0.20;;;18.90;99.90;;;;;;5071103;28;20051;-83
2021/06/29 10:11:33;;;;;;;0.22;0.20;;;18.80;99.90;;;;;;5071584;28;20032;-83
2021/06/29 10:14:03;;;;;;;0.10;0.10;;;20.00;99.90;;;;;;5071448;28;20090;-83
2021/06/29 10:16:39;;;;;;;0.20;0.20;;;19.60;99.90;;;;;;5071591;28;20024;-83
2021/06/29 10:21:39;;;;;;;0.17;0.17;;;19.40;99.90;;;;;;5071149;28;20048;-83
2021/06/29 10:24:07;;;;;;;0.20;0.20;;;19.70;99.90;;;;;;5069974;28;20025;-83
2021/06/29 10:26:39;;;;;;;0.47;0.40;;;19.70;99.90;;;;;;5071704;28;20032;-82
2021/06/29 10:29:09;;;;;;;0.17;0.17;;;19.10;99.90;;;;;;5071402;28;20020;-83
2021/06/29 10:31:41;;;;;;;0.25;0.10;;;19.00;99.90;;;;;;5071346;28;20104;-82
2021/06/29 10:34:09;;;;;;;0.10;0.10;;;19.50;99.90;;;;;;5070995;28;20397;-82
2021/06/29 10:36:39;;;;;;;0.38;0.38;;;19.90;99.90;;;;;;5071403;28;20020;-83
2021/06/29 10:39:07;;;;;;;0.00;0.00;;;22.00;99.90;;;;;;5071238;28;20259;-82
2021/06/29 10:41:36;;;;;;;0.00;0.00;;;23.20;99.90;;;;;;5069268;28;20130;-83
2021/06/29 10:44:02;;;;;;;0.20;0.20;;;23.60;99.90;;;;;;5065910;28;20086;-84
2021/06/29 10:46:28;;;;;;;0.20;0.20;;;22.70;99.90;;;;;;5059693;28;20107;-84
2021/06/29 10:48:54;;;;;;;0.00;0.00;;;22.10;99.90;;;;;;5059529;28;20032;-83
2021/06/29 10:51:36;;;;;;;0.10;0.08;;;21.00;99.90;;;;;;5071211;28;20712;-84
2021/06/29 10:54:02;;;;;;;0.55;0.20;;;20.70;99.90;;;;;;5070804;28;20029;-84
2021/06/29 10:56:52;;;;;;;0.10;0.10;;;19.50;99.90;;;;;;5071055;28;20027;-84
2021/06/29 10:59:18;;;;;;;0.08;0.08;;;18.90;99.90;;;;;;5070997;28;20028;-86
2021/06/29 11:01:55;;;;;;;0.00;0.00;;;17.80;99.90;;;;;;5059011;28;20047;-86
2021/06/29 11:04:46;;;;;;;0.22;0.22;;;15.80;98.20;;;;;;5058289;28;20072;-86
2021/06/29 11:07:27;;;;;;;0.20;0.20;;;16.20;99.90;;;;;;5065049;28;20008;-86
2021/06/29 11:09:59;;;;;;;0.13;0.10;;;16.40;99.90;;;;;;5049499;28;20025;-86
2021/06/29 11:12:27;;;;;;;0.20;0.20;;;16.20;99.90;;;;;;5048622;28;20044;-85
2021/06/29 11:14:58;;;;;;;0.00;0.00;;;16.20;99.90;;;;;;5048312;28;20033;-85
2021/06/29 11:17:52;;;;;;;0.10;0.10;;;16.30;99.90;;;;;;5058060;28;20025;-84
2021/06/29 11:20:22;;;;;;;0.10;0.10;;;16.60;99.90;;;;;;5049837;28;20037;-83
2021/06/29 11:22:51;;;;;;;0.10;0.10;;;16.90;99.90;;;;;;5059756;28;20108;-84
2021/06/29 11:25:41;;;;;;;0.15;0.15;;;17.30;99.90;;;;;;5064071;28;20029;-84
2021/06/29 11:28:26;;;;;;;0.00;0.00;;;19.20;99.90;;;;;;5063858;28;20024;-83
2021/06/29 11:31:04;;;;;;;0.00;0.00;;;21.10;99.90;;;;;;5050894;28;20017;-84
2021/06/29 11:34:02;;;;;;;0.10;0.10;;;22.60;99.90;;;;;;5050039;28;20040;-83
2021/06/29 11:36:40;;;;;;;0.10;0.10;;;21.00;99.90;;;;;;5058175;28;20498;-83
2021/06/29 11:39:29;;;;;;;0.00;0.00;;;21.20;99.90;;;;;;5053654;28;20028;-83
2021/06/29 11:42:09;;;;;;;17.23;0.50;;;19.90;99.90;;;;;;5057148;28;20426;-83
2021/06/29 11:44:48;;;;;;;0.00;0.00;;;20.60;99.90;;;;;;5050619;28;20024;-83
2021/06/29 11:47:19;;;;;;;0.85;0.52;;;20.00;99.90;;;;;;5056645;28;20131;-83
2021/06/29 11:49:53;;;;;;;0.10;0.10;;;20.50;99.90;;;;;;5045063;28;20032;-83
2021/06/29 11:52:27;;;;;;;0.00;0.00;;;21.00;99.90;;;;;;5049459;28;20052;-83
2021/06/29 11:55:07;;;;;;;;;;;;;;;;;;;;;
2021/06/29 11:57:46;;;;;;;0.00;0.00;;;21.30;99.90;;;;;;5056655;28;20035;-83
2021/06/29 12:00:26;;;;;;;0.00;0.00;;;20.20;99.90;;;;;;5055790;28;20024;-83
2021/06/29 12:03:00;;;;;;;0.00;0.00;;;19.80;99.90;;;;;;5063808;28;20052;-83
2021/06/29 12:05:29;;;;;;;0.00;0.00;;;19.80;99.90;;;;;;5061174;28;20094;-83
2021/06/29 12:08:02;;;;;;;0.00;0.00;;;19.50;99.90;;;;;;5063942;28;20070;-82
2021/06/29 12:10:34;;;;;;;0.30;0.30;;;19.20;99.90;;;;;;5066304;28;20021;-83
2021/06/29 12:13:05;;;;;;;0.20;0.20;;;19.60;99.90;;;;;;5057717;28;20025;-83
2021/06/29 12:15:35;;;;;;;0.10;0.10;;;18.90;99.90;;;;;;5054318;28;20033;-83
2021/06/29 12:18:10;;;;;;;0.10;0.10;;;18.60;99.90;;;;;;5058415;28;20033;-83
2021/06/29 12:20:47;;;;;;;2.63;0.40;;;18.00;99.90;;;;;;5056698;28;20567;-82
2021/06/29 12:23:14;;;;;;;;;;;18.10;99.90;;;;;;5058115;28;20021;-83
2021/06/29 12:25:45;;;;;;;0.00;0.00;;;18.10;99.90;;;;;;5064514;28;19919;-84
2021/06/29 12:28:17;;;;;;;0.10;0.10;;;17.60;99.90;;;;;;5041630;28;20055;-83
2021/06/29 12:30:52;;;;;;;0.10;0.10;;;17.40;99.90;;;;;;5054655;28;20017;-83
2021/06/29 12:33:23;;;;;;;0.10;0.10;;;17.00;99.90;;;;;;5057728;28;20032;-83
2021/06/29 12:35:55;;;;;;;0.10;0.10;;;17.20;99.90;;;;;;5053403;28;20029;-83
2021/06/29 12:38:26;;;;;;;0.55;0.55;;;17.90;99.90;;;;;;5053870;28;20082;-83
2021/06/29 12:40:55;;;;;;;0.00;0.00;;;18.30;99.90;;;;;;5051541;28;20036;-83
2021/06/29 12:43:31;;;;;;;0.17;0.17;;;19.40;99.90;;;;;;5063181;28;20079;-83
2021/06/29 12:46:11;;;;;;;0.10;0.10;;;19.00;99.90;;;;;;5064578;28;20025;-83
2021/06/29 12:48:38;;;;;;;0.00;0.00;;;19.20;99.90;;;;;;5057677;28;20066;-83
2021/06/29 12:51:07;;;;;;;;;;;18.80;99.90;;;;;;5055526;28;20029;-83
2021/06/29 12:53:34;;;;;;;0.00;0.00;;;18.00;99.90;;;;;;5058430;28;19924;-83
2021/06/29 12:56:16;;;;;;;0.10;0.10;;;18.40;99.90;;;;;;5063625;28;20036;-83
2021/06/29 12:58:46;;;;;;;0.00;0.00;;;18.10;99.90;;;;;;5058145;28;20439;-83